עמוד ראשי
METAR-TAF:

METAR-TAF

שדות תעופה :

טרינידד, בוליביה

קו רוחב: 14-49S, קו אורך: 064-55W, גובה: 155מטר

תצפית מזג אוויר נוכחית

הדו"ח נערך לפני 3 שעות ו 5דקות, בשעה 23:00 UTC
רוח 4קשר מכיוון מערב/צפון-מערב
טמפרטורת 28 צלסיוס
לחות 84%
לחץ 1008 hPa
ראות 10 קילומטר או יותר
עננים פזורים בגובה 8000רגל
עננים בינוניים בגובה 20000רגל

METAR: SLTR 132300Z 30004KT 9999 SCT080 BKN200 28/25 Q1008

זמן: 22:05 (02:05 UTC)

תחזית

הדו"ח נערך לפני 4 שעות ו 5דקות, בשעה 22:00 UTC
תחזית בתוקף מ 14 ב 00 UTC עד 14 ב 24 UTC
רוח 5קשר מכיוון צפון-מערב
ראות 10 קילומטר או יותר
מעט עננים בגובה 1700רגל
יעשה מ
14 ב 12 UTC עד 14 ב 14 UTC
רוח 15קשר מכיוון צפון/צפון-מערב
עננים פזורים בגובה 2500רגל
עננים בינוניים בגובה 7000רגל

TAF: SLTR 132200Z 1400/1424 32005KT 9999 FEW017 TX34/1419Z TN24/1411Z BECMG 1412/1414 33015KT SCT025 BKN070

תצפיות ותחזיות מזג אוויר לגבי יותר מ- 4,000 שדות תעופה ברחבי העולם. דוחות METAR ו- TAF.

התחנות הזמינות מסומנות בנקודות צהובות ואדומות על גבי המפה.

העבר את העכבר לנקודה הצבעונית על מנת לראות את שם התחנה.

לאחר מכן, לחץ כדי לראות את תוכן ואת תחזיות מזג האוויר.

כדי לשנות את המפה: לחץ על הכפתורים הירוקים עם הפלוס השחור כדי להתקרב; על הכפתור הירוק עם המקף כדי להתרחק; או בחיצים הירוקים למפות סמוכות.


METAR-TAF: